Goodsoil, Canada
Current Conditions -  °F | °C
As of 3:00 PM on Saturday 25 Oct 2014 (Local Time) from CYLJ Reporting Station
Broken Clouds Broken Clouds  
Wind Chill: 43°   Ceiling: 25000
Heat Index: 43°   Visibility: 15mi
Dew Point: 27°   Wind: 2mph
Humidity: 53%   Direction: NA
Pressure: 29.95"   Gusts: NA
Location:  54.4°N, 109.23°W
Report Text: CYLJ 252100Z VRB02KT 15SM SCT180 BKN250 06/M03 A2995 RMK AC3CI2 SLP164
Loading
Personal Weather Stations






























Interactive Weather Map
Tropical Storm Tracking
New forecast layout! Learn more

10-Day Weather Forecast

Advertisements
Track Severe Weather on mobile